createdAt,value
2018-06-13T00:01:22.097Z,18.52
2018-06-13T00:03:51.908Z,18.12
2018-06-13T00:06:21.425Z,18.12
2018-06-13T00:08:51.385Z,18.06
2018-06-13T00:11:20.821Z,18.14
2018-06-13T00:13:50.411Z,17.95
2018-06-13T00:16:20.523Z,17.66
2018-06-13T00:18:49.795Z,17.81
2018-06-13T00:21:19.299Z,17.81
2018-06-13T00:23:48.827Z,17.87
2018-06-13T00:26:18.342Z,17.93
2018-06-13T00:28:47.643Z,17.65
2018-06-13T00:31:17.340Z,17.63
2018-06-13T00:33:46.848Z,17.51
2018-06-13T00:36:16.187Z,17.23
2018-06-13T00:38:45.688Z,17.28
2018-06-13T00:41:15.035Z,17.31
2018-06-13T00:43:44.102Z,17.54
2018-06-13T00:46:13.428Z,17.52
2018-06-13T00:48:42.731Z,17.32
2018-06-13T00:51:12.080Z,17.40
2018-06-13T00:53:41.636Z,17.44
2018-06-13T00:56:27.984Z,17.41
2018-06-13T00:58:57.284Z,17.44
2018-06-13T01:01:26.651Z,17.57
2018-06-13T01:03:56.089Z,17.52
2018-06-13T01:06:25.413Z,17.49
2018-06-13T01:08:54.953Z,17.47
2018-06-13T01:11:24.298Z,17.48
2018-06-13T01:13:53.970Z,17.29
2018-06-13T01:16:23.391Z,17.24
2018-06-13T01:18:52.739Z,17.34
2018-06-13T01:21:22.241Z,17.36
2018-06-13T01:23:51.507Z,17.37
2018-06-13T01:26:21.014Z,17.16
2018-06-13T01:28:50.327Z,17.37
2018-06-13T01:31:19.613Z,17.34
2018-06-13T01:33:48.884Z,17.18
2018-06-13T01:36:19.181Z,17.13
2018-06-13T01:38:48.479Z,17.17
2018-06-13T01:41:21.018Z,17.21
2018-06-13T01:43:50.345Z,17.09
2018-06-13T01:46:19.692Z,16.92
2018-06-13T01:48:49.283Z,16.67
2018-06-13T01:51:18.583Z,16.67
2018-06-13T01:53:47.864Z,16.53
2018-06-13T01:56:17.508Z,16.31
2018-06-13T01:58:46.861Z,16.39
2018-06-13T02:01:16.351Z,16.38
2018-06-13T02:03:45.866Z,16.43
2018-06-13T02:06:15.352Z,16.48
2018-06-13T02:08:44.714Z,16.34
2018-06-13T02:11:14.466Z,16.30
2018-06-13T02:13:43.882Z,16.38
2018-06-13T02:16:13.385Z,16.37
2018-06-13T02:18:43.082Z,16.42
2018-06-13T02:21:12.368Z,16.65
2018-06-13T02:23:41.673Z,16.64
2018-06-13T02:26:11.009Z,16.53
2018-06-13T02:28:40.304Z,16.64
2018-06-13T02:31:09.667Z,16.67
2018-06-13T02:33:39.027Z,16.82
2018-06-13T02:36:09.014Z,16.72
2018-06-13T02:38:38.603Z,16.66
2018-06-13T02:41:08.211Z,16.89
2018-06-13T02:43:37.535Z,16.70
2018-06-13T02:46:06.950Z,16.81
2018-06-13T02:48:36.264Z,16.66
2018-06-13T02:51:05.624Z,16.84
2018-06-13T02:53:34.927Z,16.92
2018-06-13T02:56:04.265Z,16.90
2018-06-13T02:58:33.565Z,17.00
2018-06-13T03:01:02.891Z,16.98
2018-06-13T03:03:32.607Z,16.72
2018-06-13T03:06:01.918Z,16.72
2018-06-13T03:08:31.387Z,16.69
2018-06-13T03:11:00.947Z,16.73
2018-06-13T03:13:31.011Z,16.82
2018-06-13T03:16:00.510Z,16.73
2018-06-13T03:18:30.020Z,16.68
2018-06-13T03:20:59.352Z,16.63
2018-06-13T03:23:28.686Z,16.70
2018-06-13T03:25:58.908Z,16.60
2018-06-13T03:28:28.440Z,16.65
2018-06-13T03:30:57.950Z,16.37
2018-06-13T03:33:27.488Z,16.52
2018-06-13T03:35:56.961Z,16.44
2018-06-13T03:38:26.513Z,16.52
2018-06-13T03:40:56.210Z,16.47
2018-06-13T03:43:25.526Z,16.32
2018-06-13T03:45:54.852Z,16.38
2018-06-13T03:48:24.324Z,16.23
2018-06-13T03:50:53.658Z,16.25
2018-06-13T03:53:23.136Z,16.33
2018-06-13T03:55:52.439Z,16.33
2018-06-13T03:58:21.802Z,16.43
2018-06-13T04:00:51.268Z,16.32
2018-06-13T04:03:20.652Z,16.52
2018-06-13T04:05:49.980Z,16.50
2018-06-13T04:08:19.326Z,16.45
2018-06-13T04:10:49.224Z,16.40
2018-06-13T04:13:18.566Z,16.36
2018-06-13T04:15:48.454Z,16.51
2018-06-13T04:18:17.750Z,16.56
2018-06-13T04:20:47.092Z,16.61
2018-06-13T04:23:16.627Z,16.47
2018-06-13T04:25:46.332Z,16.57
2018-06-13T04:28:15.633Z,16.43
2018-06-13T04:30:44.999Z,16.71
2018-06-13T04:33:14.945Z,16.54
2018-06-13T04:35:44.285Z,16.52
2018-06-13T04:38:13.575Z,16.56
2018-06-13T04:40:42.890Z,16.54
2018-06-13T04:43:12.461Z,16.71
2018-06-13T04:45:41.839Z,16.77
2018-06-13T04:48:11.441Z,16.76
2018-06-13T04:50:40.799Z,16.72
2018-06-13T04:53:10.073Z,16.78
2018-06-13T04:55:39.913Z,16.70
2018-06-13T04:58:09.243Z,16.71
2018-06-13T05:00:38.592Z,16.83
2018-06-13T05:03:07.912Z,16.95
2018-06-13T05:05:37.226Z,17.00
2018-06-13T05:08:06.599Z,16.97
2018-06-13T05:10:35.962Z,17.13
2018-06-13T05:13:05.434Z,16.92
2018-06-13T05:15:34.738Z,17.11
2018-06-13T05:18:04.635Z,17.02
2018-06-13T05:20:33.929Z,16.94
2018-06-13T05:23:03.249Z,17.04
2018-06-13T05:25:32.596Z,17.14
2018-06-13T05:28:01.962Z,17.19
2018-06-13T05:30:31.051Z,17.29
2018-06-13T05:33:00.553Z,17.23
2018-06-13T05:35:29.881Z,17.34
2018-06-13T05:37:59.166Z,17.21
2018-06-13T05:40:28.748Z,16.78
2018-06-13T05:42:58.325Z,16.88
2018-06-13T05:45:27.774Z,17.04
2018-06-13T05:47:57.233Z,17.18
2018-06-13T05:50:26.586Z,17.01
2018-06-13T05:52:55.971Z,17.15
2018-06-13T05:55:25.287Z,17.17
2018-06-13T05:57:54.722Z,17.17
2018-06-13T06:00:24.041Z,17.15
2018-06-13T06:02:53.617Z,17.31
2018-06-13T06:05:22.877Z,17.21
2018-06-13T06:07:52.216Z,17.42
2018-06-13T06:10:21.600Z,17.41
2018-06-13T06:12:50.892Z,17.63
2018-06-13T06:15:20.283Z,17.86
2018-06-13T06:17:49.643Z,18.01
2018-06-13T06:20:18.957Z,18.19
2018-06-13T06:22:48.249Z,18.12
2018-06-13T06:25:18.060Z,18.36
2018-06-13T06:27:47.360Z,17.93
2018-06-13T06:30:16.723Z,18.37
2018-06-13T06:32:46.051Z,18.46
2018-06-13T06:35:15.434Z,18.23
2018-06-13T06:37:44.821Z,18.30
2018-06-13T06:40:14.187Z,18.49
2018-06-13T06:42:43.593Z,18.67
2018-06-13T06:45:12.921Z,18.91
2018-06-13T06:47:42.566Z,18.97
2018-06-13T06:50:11.965Z,19.03
2018-06-13T06:52:41.345Z,18.86
2018-06-13T06:55:10.774Z,18.47
2018-06-13T06:57:40.119Z,18.78
2018-06-13T07:00:09.487Z,18.71
2018-06-13T07:02:38.842Z,18.89
2018-06-13T07:05:08.261Z,19.31
2018-06-13T07:07:37.761Z,19.41
2018-06-13T07:10:07.351Z,19.44
2018-06-13T07:12:36.667Z,19.71
2018-06-13T07:15:06.004Z,19.49
2018-06-13T07:17:35.324Z,19.99
2018-06-13T07:20:04.838Z,20.37
2018-06-13T07:22:34.143Z,20.06
2018-06-13T07:25:03.514Z,19.86
2018-06-13T07:27:32.854Z,19.38
2018-06-13T07:30:02.160Z,19.43
2018-06-13T07:32:31.830Z,19.48
2018-06-13T07:35:01.199Z,19.64
2018-06-13T07:37:30.574Z,19.72
2018-06-13T07:39:59.947Z,20.02
2018-06-13T07:42:29.279Z,20.22
2018-06-13T07:44:58.647Z,20.95
2018-06-13T07:47:28.015Z,21.31
2018-06-13T07:49:57.481Z,21.25
2018-06-13T07:52:26.991Z,21.91
2018-06-13T07:54:56.426Z,21.96
2018-06-13T07:57:25.794Z,21.90
2018-06-13T07:59:55.090Z,21.62
2018-06-13T08:02:24.470Z,21.52
2018-06-13T08:04:53.783Z,21.39
2018-06-13T08:07:23.134Z,20.86
2018-06-13T08:09:52.487Z,20.75
2018-06-13T08:12:21.787Z,20.84
2018-06-13T08:14:51.120Z,20.77
2018-06-13T08:17:20.891Z,20.74
2018-06-13T08:19:50.215Z,20.65
2018-06-13T08:22:19.524Z,20.70
2018-06-13T08:24:54.691Z,20.46
2018-06-13T08:27:24.044Z,20.73
2018-06-13T08:29:53.421Z,20.86
2018-06-13T08:32:23.251Z,21.22
2018-06-13T08:34:52.657Z,21.47
2018-06-13T08:37:22.155Z,22.05
2018-06-13T08:39:51.334Z,22.29
2018-06-13T08:42:20.684Z,22.44
2018-06-13T08:44:50.084Z,22.66
2018-06-13T08:47:19.768Z,22.64
2018-06-13T08:49:49.064Z,22.85
2018-06-13T08:52:18.436Z,22.79
2018-06-13T08:54:48.047Z,22.67
2018-06-13T08:57:17.366Z,22.39
2018-06-13T08:59:46.670Z,21.89
2018-06-13T09:02:16.071Z,21.78
2018-06-13T09:04:45.370Z,22.24
2018-06-13T09:07:14.675Z,22.20
2018-06-13T09:09:44.027Z,22.38
2018-06-13T09:12:13.378Z,22.42
2018-06-13T09:14:42.765Z,22.17
2018-06-13T09:17:12.694Z,22.30
2018-06-13T09:19:42.015Z,22.26
2018-06-13T09:22:11.322Z,22.33
2018-06-13T09:24:40.701Z,22.17
2018-06-13T09:27:10.083Z,21.97
2018-06-13T09:29:39.472Z,22.09
2018-06-13T09:32:08.971Z,22.18
2018-06-13T09:34:38.323Z,22.18
2018-06-13T09:37:07.648Z,21.94
2018-06-13T09:39:37.431Z,21.87
2018-06-13T09:42:07.042Z,21.85
2018-06-13T09:44:36.377Z,22.07
2018-06-13T09:47:06.897Z,22.61
2018-06-13T09:49:34.866Z,22.67
2018-06-13T09:52:04.201Z,22.65
2018-06-13T09:54:33.542Z,23.38
2018-06-13T09:57:03.019Z,23.98
2018-06-13T09:59:40.874Z,24.42
2018-06-13T10:02:15.539Z,24.42
2018-06-13T10:04:45.042Z,24.93
2018-06-13T10:07:14.384Z,24.84
2018-06-13T10:09:43.905Z,24.75
2018-06-13T10:12:12.995Z,24.58
2018-06-13T10:14:42.276Z,24.68
2018-06-13T10:17:11.597Z,24.98
2018-06-13T10:19:41.109Z,24.51
2018-06-13T10:22:10.579Z,23.64
2018-06-13T10:24:39.858Z,23.18
2018-06-13T10:27:14.421Z,23.20
2018-06-13T10:29:43.972Z,23.03
2018-06-13T10:32:13.372Z,22.83
2018-06-13T10:34:43.107Z,22.83
2018-06-13T10:37:12.515Z,22.68
2018-06-13T10:39:41.865Z,22.45
2018-06-13T10:42:11.213Z,22.39
2018-06-13T10:44:40.655Z,22.94
2018-06-13T10:47:09.996Z,23.41
2018-06-13T10:49:39.312Z,23.59
2018-06-13T10:52:08.690Z,23.60
2018-06-13T10:54:38.054Z,23.67
2018-06-13T10:57:07.437Z,23.63
2018-06-13T10:59:36.760Z,23.47
2018-06-13T11:02:06.700Z,23.56
2018-06-13T11:04:36.082Z,23.59
2018-06-13T11:07:05.556Z,23.81
2018-06-13T11:09:34.858Z,24.13
2018-06-13T11:12:04.230Z,24.58
2018-06-13T11:14:33.566Z,25.26
2018-06-13T11:17:02.885Z,25.63
2018-06-13T11:19:32.425Z,25.08
2018-06-13T11:22:01.751Z,24.98
2018-06-13T11:24:31.142Z,24.41
2018-06-13T11:27:00.504Z,23.93
2018-06-13T11:29:29.848Z,23.25
2018-06-13T11:31:59.231Z,23.19
2018-06-13T11:34:28.577Z,23.06
2018-06-13T11:36:57.931Z,23.43
2018-06-13T11:39:27.250Z,23.01
2018-06-13T11:41:56.695Z,22.49
2018-06-13T11:44:26.264Z,22.69
2018-06-13T11:46:55.714Z,22.36
2018-06-13T11:49:25.152Z,22.37
2018-06-13T11:51:54.502Z,22.43
2018-06-13T11:54:24.127Z,22.03
2018-06-13T11:56:53.523Z,22.06
2018-06-13T11:59:22.857Z,21.94
2018-06-13T12:01:52.248Z,22.04
2018-06-13T12:04:21.912Z,22.12
2018-06-13T12:06:51.219Z,22.14
2018-06-13T12:09:20.546Z,22.44
2018-06-13T12:11:50.621Z,22.30
2018-06-13T12:14:20.028Z,22.53
2018-06-13T12:16:49.475Z,22.40
2018-06-13T12:19:18.823Z,22.81
2018-06-13T12:21:48.179Z,23.06
2018-06-13T12:24:17.565Z,22.94
2018-06-13T12:26:47.474Z,23.02
2018-06-13T12:29:16.812Z,23.03
2018-06-13T12:31:46.382Z,23.30
2018-06-13T12:34:15.786Z,23.57
2018-06-13T12:36:45.262Z,23.01
2018-06-13T12:39:14.859Z,22.52
2018-06-13T12:41:44.253Z,22.26
2018-06-13T12:44:13.598Z,21.91
2018-06-13T12:46:42.893Z,21.71
2018-06-13T12:49:12.468Z,22.10
2018-06-13T12:51:41.784Z,21.98
2018-06-13T12:54:11.114Z,22.03
2018-06-13T12:56:41.140Z,22.20
2018-06-13T12:59:10.555Z,22.57
2018-06-13T13:01:39.997Z,22.84
2018-06-13T13:04:09.130Z,22.93
2018-06-13T13:06:38.205Z,22.52
2018-06-13T13:09:11.704Z,22.68
2018-06-13T13:11:41.369Z,22.36
2018-06-13T13:14:10.727Z,21.88
2018-06-13T13:16:40.097Z,21.86
2018-06-13T13:19:09.608Z,21.91
2018-06-13T13:21:39.128Z,22.20
2018-06-13T13:24:08.588Z,21.76
2018-06-13T13:26:37.950Z,21.50
2018-06-13T13:29:07.323Z,21.40
2018-06-13T13:31:37.067Z,21.31
2018-06-13T13:34:06.453Z,21.32
2018-06-13T13:36:35.785Z,21.21
2018-06-13T13:39:08.112Z,21.43
2018-06-13T13:41:37.843Z,21.25
2018-06-13T13:44:07.172Z,21.40
2018-06-13T13:46:36.523Z,21.09
2018-06-13T13:49:06.163Z,20.93
2018-06-13T13:51:35.462Z,20.76
2018-06-13T13:54:05.388Z,20.67
2018-06-13T13:56:34.688Z,20.63
2018-06-13T13:59:04.088Z,20.79
2018-06-13T14:01:33.451Z,21.03
2018-06-13T14:04:02.803Z,20.82
2018-06-13T14:06:31.894Z,21.01
2018-06-13T14:09:01.296Z,21.31
2018-06-13T14:11:30.670Z,20.92
2018-06-13T14:13:59.994Z,20.96
2018-06-13T14:16:29.551Z,20.93
2018-06-13T14:18:59.106Z,21.15
2018-06-13T14:21:28.508Z,21.04
2018-06-13T14:23:57.922Z,21.02
2018-06-13T14:26:27.425Z,21.43
2018-06-13T14:28:57.005Z,21.79
2018-06-13T14:31:26.364Z,21.92
2018-06-13T14:33:55.766Z,21.74
2018-06-13T14:36:25.410Z,22.08
2018-06-13T14:38:54.940Z,22.32
2018-06-13T14:41:24.712Z,22.23
2018-06-13T14:43:54.068Z,22.20
2018-06-13T14:46:23.452Z,22.45
2018-06-13T14:48:52.865Z,22.34
2018-06-13T14:51:22.167Z,22.19
2018-06-13T14:53:54.092Z,21.80
2018-06-13T14:56:27.665Z,22.54
2018-06-13T14:58:58.387Z,22.80
2018-06-13T15:01:27.726Z,22.77
2018-06-13T15:03:57.299Z,22.53
2018-06-13T15:06:26.934Z,22.28
2018-06-13T15:08:56.423Z,22.04
2018-06-13T15:11:25.876Z,21.72
2018-06-13T15:13:55.265Z,22.01
2018-06-13T15:16:24.725Z,21.74
2018-06-13T15:18:54.490Z,21.75
2018-06-13T15:21:24.401Z,21.86
2018-06-13T15:23:53.907Z,21.82
2018-06-13T15:26:23.340Z,22.01
2018-06-13T15:28:52.940Z,22.03
2018-06-13T15:31:22.640Z,22.09
2018-06-13T15:33:52.404Z,21.96
2018-06-13T15:36:23.374Z,21.76
2018-06-13T15:38:52.790Z,21.72
2018-06-13T15:41:22.153Z,21.73
2018-06-13T15:43:52.187Z,21.65
2018-06-13T15:46:22.807Z,21.84
2018-06-13T15:48:52.577Z,22.06
2018-06-13T15:51:21.958Z,22.38
2018-06-13T15:53:51.360Z,22.60
2018-06-13T15:56:20.763Z,22.74
2018-06-13T15:58:50.074Z,22.42
2018-06-13T16:01:19.410Z,22.75
2018-06-13T16:03:48.874Z,22.68
2018-06-13T16:06:18.939Z,22.55
2018-06-13T16:08:48.365Z,22.54
2018-06-13T16:11:18.033Z,22.83
2018-06-13T16:13:47.421Z,22.67
2018-06-13T16:16:16.940Z,22.71
2018-06-13T16:18:46.442Z,22.73
2018-06-13T16:21:16.198Z,22.54
2018-06-13T16:23:45.778Z,22.45
2018-06-13T16:26:15.439Z,22.36
2018-06-13T16:28:45.545Z,22.10
2018-06-13T16:31:15.248Z,22.29
2018-06-13T16:33:44.828Z,21.89
2018-06-13T16:36:14.437Z,21.90
2018-06-13T16:38:43.799Z,22.11
2018-06-13T16:41:13.498Z,21.98
2018-06-13T16:43:43.088Z,21.89
2018-06-13T16:46:12.596Z,22.32
2018-06-13T16:48:42.132Z,21.80
2018-06-13T16:51:28.804Z,21.64
2018-06-13T16:54:10.970Z,21.54
2018-06-13T16:56:41.069Z,21.42
2018-06-13T16:59:10.470Z,21.35
2018-06-13T17:01:39.811Z,20.87
2018-06-13T17:04:09.422Z,21.12
2018-06-13T17:06:38.788Z,21.37
2018-06-13T17:09:08.719Z,21.61
2018-06-13T17:11:38.548Z,21.46
2018-06-13T17:14:07.949Z,21.05
2018-06-13T17:16:37.267Z,21.15
2018-06-13T17:19:06.677Z,21.26
2018-06-13T17:21:36.034Z,21.40
2018-06-13T17:24:05.421Z,21.10
2018-06-13T17:26:34.829Z,20.88
2018-06-13T17:29:05.195Z,20.88
2018-06-13T17:31:34.614Z,20.64
2018-06-13T17:34:04.225Z,20.61
2018-06-13T17:36:33.609Z,20.60
2018-06-13T17:39:03.103Z,20.37
2018-06-13T17:41:32.479Z,20.58
2018-06-13T17:44:02.084Z,20.82
2018-06-13T17:46:31.501Z,20.70
2018-06-13T17:49:01.100Z,20.80
2018-06-13T17:51:30.599Z,20.63
2018-06-13T17:53:59.942Z,20.29
2018-06-13T17:56:29.496Z,20.38
2018-06-13T17:58:59.187Z,20.58
2018-06-13T18:01:28.924Z,20.53
2018-06-13T18:03:58.544Z,20.66
2018-06-13T18:06:27.910Z,20.38
2018-06-13T18:08:57.552Z,20.52
2018-06-13T18:11:27.021Z,20.64
2018-06-13T18:13:56.689Z,20.50
2018-06-13T18:16:26.018Z,20.55
2018-06-13T18:18:55.981Z,20.62
2018-06-13T18:21:25.333Z,20.31
2018-06-13T18:23:54.651Z,20.03
2018-06-13T18:26:24.126Z,19.97
2018-06-13T18:28:53.479Z,19.91
2018-06-13T18:31:22.840Z,19.70
2018-06-13T18:33:52.355Z,19.70
2018-06-13T18:36:21.617Z,19.83
2018-06-13T18:38:50.922Z,19.87
2018-06-13T18:41:20.335Z,20.05
2018-06-13T18:43:49.700Z,19.74
2018-06-13T18:46:19.098Z,19.63
2018-06-13T18:48:48.513Z,19.68
2018-06-13T18:51:18.044Z,19.56
2018-06-13T18:53:47.447Z,19.63
2018-06-13T18:56:16.798Z,19.65
2018-06-13T18:58:46.212Z,19.48
2018-06-13T19:01:15.683Z,19.63
2018-06-13T19:03:45.452Z,19.51
2018-06-13T19:06:14.884Z,19.35
2018-06-13T19:08:44.198Z,19.47
2018-06-13T19:11:13.654Z,19.53
2018-06-13T19:13:42.990Z,19.59
2018-06-13T19:16:12.375Z,19.31
2018-06-13T19:18:41.772Z,19.47
2018-06-13T19:21:11.142Z,19.38
2018-06-13T19:23:40.581Z,19.33
2018-06-13T19:26:10.453Z,19.30
2018-06-13T19:28:39.823Z,19.39
2018-06-13T19:31:09.132Z,19.35
2018-06-13T19:33:38.458Z,19.07
2018-06-13T19:36:07.876Z,19.10
2018-06-13T19:38:37.278Z,19.12
2018-06-13T19:41:06.717Z,19.27
2018-06-13T19:43:40.580Z,19.12
2018-06-13T19:46:11.110Z,19.19
2018-06-13T19:48:49.459Z,19.16
2018-06-13T19:51:18.848Z,19.16
2018-06-13T19:53:53.490Z,19.15
2018-06-13T19:56:29.173Z,19.20
2018-06-13T19:58:58.716Z,19.15
2018-06-13T20:01:28.263Z,18.92
2018-06-13T20:04:03.189Z,18.78
2018-06-13T20:06:32.639Z,18.82
2018-06-13T20:09:02.452Z,18.95
2018-06-13T20:11:32.240Z,19.09
2018-06-13T20:14:07.291Z,19.14
2018-06-13T20:16:50.787Z,19.10
2018-06-13T20:19:25.720Z,18.78
2018-06-13T20:22:08.983Z,18.73
2018-06-13T20:24:38.388Z,18.90
2018-06-13T20:27:12.847Z,18.80
2018-06-13T20:29:47.467Z,18.88
2018-06-13T20:32:16.933Z,18.90
2018-06-13T20:34:46.350Z,18.79
2018-06-13T20:37:15.553Z,18.83
2018-06-13T20:39:45.751Z,18.92
2018-06-13T20:42:15.342Z,18.61
2018-06-13T20:44:44.956Z,18.61
2018-06-13T20:47:14.374Z,18.74
2018-06-13T20:49:43.893Z,18.60
2018-06-13T20:52:13.289Z,18.64
2018-06-13T20:54:42.770Z,18.65
2018-06-13T20:57:12.484Z,18.59
2018-06-13T20:59:42.016Z,18.61
2018-06-13T21:02:11.859Z,18.53
2018-06-13T21:04:41.432Z,18.51
2018-06-13T21:07:11.114Z,18.53
2018-06-13T21:09:40.955Z,18.67
2018-06-13T21:12:10.793Z,18.64
2018-06-13T21:14:40.321Z,18.60
2018-06-13T21:17:09.799Z,18.69
2018-06-13T21:19:39.297Z,18.70
2018-06-13T21:22:08.764Z,18.64
2018-06-13T21:24:38.283Z,18.53
2018-06-13T21:27:07.654Z,18.52
2018-06-13T21:29:37.124Z,18.36
2018-06-13T21:32:06.819Z,18.65
2018-06-13T21:34:36.803Z,18.53
2018-06-13T21:37:06.313Z,18.46
2018-06-13T21:39:36.031Z,18.55
2018-06-13T21:42:05.566Z,18.42
2018-06-13T21:44:34.884Z,18.38
2018-06-13T21:47:04.663Z,18.30
2018-06-13T21:49:34.370Z,18.34
2018-06-13T21:52:04.505Z,18.31
2018-06-13T21:54:35.129Z,18.21
2018-06-13T21:57:04.503Z,18.02
2018-06-13T21:59:34.474Z,17.83
2018-06-13T22:02:04.029Z,17.92
2018-06-13T22:04:33.667Z,17.74
2018-06-13T22:07:03.245Z,17.64
2018-06-13T22:09:33.038Z,17.59
2018-06-13T22:12:02.391Z,17.52
2018-06-13T22:14:36.227Z,17.55
2018-06-13T22:17:05.500Z,17.67
2018-06-13T22:19:34.897Z,17.34
2018-06-13T22:22:04.375Z,17.40
2018-06-13T22:24:33.994Z,17.39
2018-06-13T22:27:03.540Z,17.33
2018-06-13T22:29:33.072Z,17.20
2018-06-13T22:32:02.512Z,17.29
2018-06-13T22:34:31.882Z,16.84
2018-06-13T22:37:01.225Z,17.03
2018-06-13T22:39:30.599Z,16.93
2018-06-13T22:41:59.966Z,17.24
2018-06-13T22:44:29.319Z,17.10
2018-06-13T22:46:58.625Z,17.00
2018-06-13T22:49:27.966Z,16.96
2018-06-13T22:51:57.554Z,17.02
2018-06-13T22:54:26.859Z,17.04
2018-06-13T22:56:56.166Z,16.96
2018-06-13T22:59:25.493Z,17.13
2018-06-13T23:01:55.253Z,17.30
2018-06-13T23:04:24.530Z,17.40
2018-06-13T23:06:54.197Z,17.38
2018-06-13T23:09:23.494Z,17.44
2018-06-13T23:11:52.827Z,17.40
2018-06-13T23:14:22.418Z,17.41
2018-06-13T23:16:51.741Z,17.26
2018-06-13T23:19:21.067Z,17.21
2018-06-13T23:21:50.402Z,17.24
2018-06-13T23:24:19.898Z,17.28
2018-06-13T23:26:49.335Z,17.20
2018-06-13T23:29:18.932Z,17.04
2018-06-13T23:31:48.394Z,17.17
2018-06-13T23:34:18.101Z,17.04
2018-06-13T23:36:48.344Z,17.14
2018-06-13T23:39:17.950Z,17.07
2018-06-13T23:41:47.454Z,16.96
2018-06-13T23:44:17.366Z,16.85
2018-06-13T23:46:46.946Z,16.80
2018-06-13T23:49:16.621Z,16.79
2018-06-13T23:51:46.346Z,16.91
2018-06-13T23:54:16.071Z,16.97
2018-06-13T23:56:45.525Z,16.87
2018-06-13T23:59:14.936Z,16.79
